Time;durP1;ratioP1;P1;durP2;ratioP2;P2;SDS_P1;SDS_P2;PMS_P1;PMS_P2;Temp;Humidity;BMP_temperature;BMP_pressure;BME280_temperature;BME280_humidity;BME280_pressure;Samples;Min_cycle;Max_cycle;Signal;HPM_P1;HPM_P2
2023/05/13 00:01:08;;;;;;;5.22;3.45;;;;;;;12.90;79.34;98574.63;2592176;28;20413;-84
2023/05/13 00:02:23;;;;;;;4.10;3.40;;;;;;;12.99;79.03;98582.16;2592128;28;20050;-85
2023/05/13 00:03:39;;;;;;;4.65;3.40;;;;;;;13.07;78.11;98569.63;2588574;28;20057;-85
2023/05/13 00:04:54;;;;;;;6.38;3.72;;;;;;;12.88;79.83;98573.81;2593332;28;20048;-85
2023/05/13 00:06:10;;;;;;;6.00;3.65;;;;;;;13.11;79.08;98573.84;2593266;28;20072;-85
2023/05/13 00:07:27;;;;;;;5.30;3.67;;;;;;;13.21;78.86;98570.88;2594897;28;20492;-84
2023/05/13 00:08:42;;;;;;;3.78;3.33;;;;;;;13.23;78.37;98579.56;2594197;28;20144;-84
2023/05/13 00:09:58;;;;;;;4.78;3.50;;;;;;;13.10;78.03;98571.28;2592497;28;20054;-85
2023/05/13 00:11:13;;;;;;;4.30;3.40;;;;;;;13.17;77.74;98577.19;2595593;28;20060;-84
2023/05/13 00:12:30;;;;;;;5.47;3.72;;;;;;;13.16;77.36;98573.69;2592997;28;20053;-85
2023/05/13 00:13:45;;;;;;;4.80;3.45;;;;;;;13.17;77.95;98571.91;2588482;28;20053;-85
2023/05/13 00:15:01;;;;;;;4.28;3.35;;;;;;;13.23;77.29;98582.19;2594231;28;20054;-85
2023/05/13 00:16:16;;;;;;;5.43;3.58;;;;;;;13.20;76.95;98577.94;2592201;28;20472;-84
2023/05/13 00:17:32;;;;;;;4.88;3.58;;;;;;;12.99;78.21;98575.16;2593026;28;20059;-85
2023/05/13 00:18:47;;;;;;;3.75;3.20;;;;;;;12.79;80.60;98581.09;2595289;28;20050;-86
2023/05/13 00:20:04;;;;;;;6.28;3.53;;;;;;;13.05;79.18;98573.19;2593066;28;20046;-84
2023/05/13 00:21:19;;;;;;;6.03;3.38;;;;;;;12.81;80.97;98579.28;2593281;28;20144;-84
2023/05/13 00:22:35;;;;;;;5.57;3.72;;;;;;;12.79;81.56;98581.09;2594463;28;20052;-84
2023/05/13 00:23:50;;;;;;;6.45;3.72;;;;;;;12.96;80.55;98577.91;2592168;28;20041;-85
2023/05/13 00:25:06;;;;;;;5.68;3.40;;;;;;;12.79;81.36;98580.28;2593154;28;20046;-85
2023/05/13 00:26:22;;;;;;;5.25;3.83;;;;;;;12.65;82.92;98580.72;2593918;28;20084;-85
2023/05/13 00:27:37;;;;;;;3.90;3.40;;;;;;;12.75;81.87;98589.16;2592624;28;20045;-85
2023/05/13 00:28:53;;;;;;;4.35;3.80;;;;;;;13.03;79.50;98589.06;2592478;28;20057;-84
2023/05/13 00:30:09;;;;;;;4.20;3.35;;;;;;;13.13;78.94;98579.94;2594261;28;20046;-85
2023/05/13 00:31:25;;;;;;;4.85;3.63;;;;;;;12.90;80.14;98585.97;2593318;28;20111;-85
2023/05/13 00:32:40;;;;;;;4.53;3.20;;;;;;;12.88;80.23;98581.72;2594773;28;20099;-85
2023/05/13 00:33:56;;;;;;;5.65;3.47;;;;;;;13.00;79.17;98581.28;2593255;28;20477;-85
2023/05/13 00:35:12;;;;;;;5.57;3.50;;;;;;;13.00;79.66;98582.13;2592008;28;20410;-85
2023/05/13 00:36:28;;;;;;;5.25;3.65;;;;;;;12.98;79.17;98583.06;2594549;28;20665;-85
2023/05/13 00:37:43;;;;;;;5.15;3.72;;;;;;;12.87;80.77;98582.63;2593877;28;20050;-85
2023/05/13 00:38:59;;;;;;;5.63;3.67;;;;;;;12.73;82.09;98583.97;2593973;28;20424;-85
2023/05/13 00:40:23;;;;;;;5.15;3.78;;;;;;;12.67;81.94;98576.28;2594838;28;20136;-85
2023/05/13 00:41:38;;;;;;;5.40;3.95;;;;;;;12.63;82.33;98587.81;2592195;28;20500;-84
2023/05/13 00:42:54;;;;;;;4.85;3.70;;;;;;;12.48;84.12;98583.91;2593061;28;20069;-85
2023/05/13 00:44:10;;;;;;;4.57;3.60;;;;;;;12.79;81.04;98580.28;2588206;28;20054;-85
2023/05/13 00:45:26;;;;;;;8.25;3.90;;;;;;;12.94;80.10;98581.47;2591555;28;20056;-85
2023/05/13 00:46:41;;;;;;;5.82;3.75;;;;;;;13.01;80.44;98577.75;2591927;28;20053;-84
2023/05/13 00:47:58;;;;;;;4.75;3.65;;;;;;;12.97;79.71;98587.50;2593666;28;20065;-84
2023/05/13 00:49:13;;;;;;;6.60;3.85;;;;;;;12.99;79.48;98584.78;2594176;28;20052;-84
2023/05/13 00:50:29;;;;;;;5.32;3.65;;;;;;;12.97;78.98;98581.38;2591738;28;20050;-84
2023/05/13 00:51:45;;;;;;;5.43;3.80;;;;;;;12.97;79.38;98582.25;2594772;28;20045;-84
2023/05/13 00:53:02;;;;;;;5.00;3.35;;;;;;;12.99;79.76;98582.16;2593419;28;20057;-84
2023/05/13 00:54:17;;;;;;;5.20;3.85;;;;;;;12.95;79.78;98586.69;2591748;28;20050;-85
2023/05/13 00:55:33;;;;;;;4.65;3.53;;;;;;;12.97;80.07;98582.25;2588957;28;20482;-85
2023/05/13 00:56:53;;;;;;;5.10;4.05;;;;;;;12.82;80.76;98583.63;2593150;28;20057;-85
2023/05/13 00:58:08;;;;;;;7.78;3.78;;;;;;;12.69;81.27;98582.34;2593617;28;20193;-84
2023/05/13 00:59:29;;;;;;;5.53;3.90;;;;;;;12.77;80.60;98582.94;2593048;28;20405;-84
2023/05/13 01:01:03;;;;;;;4.20;3.70;;;;;;;12.78;81.58;98589.91;2590249;28;20095;-85
2023/05/13 01:02:30;;;;;;;6.30;4.10;;;;;;;12.70;81.84;98587.53;2593953;28;20102;-84
2023/05/13 01:04:03;;;;;;;5.32;3.65;;;;;;;12.53;83.04;98585.47;2591769;28;20057;-85
2023/05/13 01:05:33;;;;;;;5.90;3.80;;;;;;;12.67;81.86;98581.53;2593436;28;20585;-85
2023/05/13 01:07:12;;;;;;;7.45;3.78;;;;;;;12.57;83.46;98589.75;2592818;28;20092;-84
2023/05/13 01:08:55;;;;;;;6.45;3.65;;;;;;;12.64;83.40;98586.91;2591664;28;20053;-84
2023/05/13 01:10:30;;;;;;;4.95;3.42;;;;;;;12.74;82.19;98590.06;2588213;28;20057;-85
2023/05/13 01:11:52;;;;;;;5.13;3.65;;;;;;;12.81;81.76;98589.78;2591218;28;20048;-84
2023/05/13 01:13:12;;;;;;;6.03;3.90;;;;;;;12.82;81.73;98588.03;2592405;28;20129;-85
2023/05/13 01:14:34;;;;;;;4.93;3.70;;;;;;;12.59;83.12;98594.94;2590760;28;20478;-87
2023/05/13 01:16:05;;;;;;;3.92;3.50;;;;;;;12.44;84.98;98588.44;2592414;28;20053;-85
2023/05/13 01:17:50;;;;;;;4.93;3.80;;;;;;;12.42;86.17;98595.47;2592619;28;20571;-84
2023/05/13 01:19:18;;;;;;;4.30;3.50;;;;;;;12.34;85.45;98593.09;2591430;28;20057;-86
2023/05/13 01:20:35;;;;;;;6.28;3.97;;;;;;;12.31;86.85;98587.13;2592350;28;20046;-85
2023/05/13 01:21:52;;;;;;;5.43;3.65;;;;;;;12.15;87.94;98588.47;2593314;28;20080;-84
2023/05/13 01:23:10;;;;;;;3.90;3.38;;;;;;;12.28;86.00;98594.16;2591817;28;20049;-85
2023/05/13 01:24:25;;;;;;;6.03;3.90;;;;;;;12.40;85.24;98602.56;2593550;28;20053;-84
2023/05/13 01:25:41;;;;;;;5.78;4.07;;;;;;;12.41;85.49;98588.50;2593018;28;20464;-84
2023/05/13 01:26:57;;;;;;;5.75;3.88;;;;;;;12.57;83.22;98587.13;2591801;28;20227;-85
2023/05/13 01:28:12;;;;;;;8.82;3.85;;;;;;;12.46;84.43;98589.25;2592041;28;20180;-84
2023/05/13 01:29:29;;;;;;;7.28;4.00;;;;;;;12.60;82.87;98594.00;2594833;28;20045;-85
2023/05/13 01:30:46;;;;;;;5.03;4.00;;;;;;;12.46;83.96;98591.88;2592484;28;21041;-87
2023/05/13 01:32:02;;;;;;;4.88;3.75;;;;;;;12.32;85.76;98586.22;2593480;28;20049;-85
2023/05/13 01:33:18;;;;;;;4.15;3.28;;;;;;;12.42;84.40;98595.47;2593785;28;20504;-86
2023/05/13 01:34:35;;;;;;;5.43;3.70;;;;;;;12.43;85.57;98591.94;2592121;28;20123;-85
2023/05/13 01:35:51;;;;;;;5.97;4.00;;;;;;;12.30;86.21;98588.88;2592746;28;20046;-85
2023/05/13 01:37:07;;;;;;;5.47;3.75;;;;;;;12.25;87.37;98586.41;2588042;28;20046;-86
2023/05/13 01:38:24;;;;;;;5.63;3.78;;;;;;;12.56;84.53;98581.91;2592738;28;20056;-85
2023/05/13 01:39:40;;;;;;;5.80;4.22;;;;;;;12.65;83.78;98583.34;2593890;28;20131;-86
2023/05/13 01:40:57;;;;;;;6.63;4.20;;;;;;;12.75;82.59;98587.38;2593301;28;20482;-85
2023/05/13 01:42:13;;;;;;;4.30;3.40;;;;;;;12.47;85.39;98590.09;2593262;28;20057;-85
2023/05/13 01:43:28;;;;;;;4.75;4.00;;;;;;;12.64;83.88;98589.53;2593026;28;20038;-85
2023/05/13 01:44:44;;;;;;;4.32;3.53;;;;;;;12.68;83.63;98580.63;2592815;28;20409;-85
2023/05/13 01:46:00;;;;;;;5.28;3.85;;;;;;;12.75;82.76;98584.75;2588905;28;20046;-84
2023/05/13 01:47:16;;;;;;;6.32;4.00;;;;;;;12.79;83.70;98583.75;2593140;28;20136;-85
2023/05/13 01:48:31;;;;;;;6.57;3.95;;;;;;;12.77;82.48;98582.94;2592353;28;20054;-84
2023/05/13 01:49:47;;;;;;;4.88;3.92;;;;;;;12.83;82.39;98582.72;2594063;28;20046;-84
2023/05/13 01:51:03;;;;;;;4.18;3.50;;;;;;;12.84;81.66;98581.78;2593711;28;20052;-84
2023/05/13 01:52:19;;;;;;;5.38;4.10;;;;;;;12.73;83.26;98585.72;2593508;28;20136;-86
2023/05/13 01:53:35;;;;;;;5.53;3.55;;;;;;;12.79;82.89;98581.09;2594374;28;20493;-86
2023/05/13 01:54:50;;;;;;;6.10;4.00;;;;;;;12.82;82.58;98581.00;2594492;28;20504;-83
2023/05/13 01:56:12;;;;;;;5.78;3.72;;;;;;;12.79;83.16;98586.38;2596732;28;20060;-83
2023/05/13 01:57:27;;;;;;;6.88;4.07;;;;;;;12.83;82.37;98587.97;2594607;28;20061;-83
2023/05/13 01:58:43;;;;;;;5.38;3.58;;;;;;;12.80;82.75;98590.72;2594331;28;20049;-83
2023/05/13 01:59:58;;;;;;;6.07;3.90;;;;;;;12.83;82.75;98587.13;2595308;28;20054;-83
2023/05/13 02:01:14;;;;;;;4.47;3.60;;;;;;;12.76;84.29;98589.09;2595338;28;20060;-83
2023/05/13 02:02:29;;;;;;;8.35;3.90;;;;;;;12.60;84.77;98587.91;2595322;28;20103;-83
2023/05/13 02:03:45;;;;;;;6.50;4.00;;;;;;;12.82;83.59;98588.88;2595020;28;20749;-83
2023/05/13 02:05:00;;;;;;;5.68;4.10;;;;;;;12.84;83.03;98584.41;2594512;28;20049;-83
2023/05/13 02:06:16;;;;;;;6.38;3.88;;;;;;;12.69;84.25;98585.84;2596397;28;20049;-83
2023/05/13 02:07:33;;;;;;;4.97;3.80;;;;;;;12.74;83.92;98587.44;2594671;28;20501;-83
2023/05/13 02:08:48;;;;;;;5.50;3.38;;;;;;;12.85;83.61;98582.66;2596544;28;20482;-83
2023/05/13 02:10:05;;;;;;;7.63;4.53;;;;;;;12.78;84.01;98583.78;2603009;28;20225;-83
2023/05/13 02:11:21;;;;;;;5.82;3.72;;;;;;;12.80;84.12;98577.56;2599817;28;20454;-83
2023/05/13 02:12:36;;;;;;;4.90;4.00;;;;;;;12.74;85.09;98585.69;2596297;28;20049;-83
2023/05/13 02:13:52;;;;;;;5.15;3.50;;;;;;;12.74;84.70;98571.66;2593482;28;20045;-83
2023/05/13 02:15:08;;;;;;;5.15;3.78;;;;;;;12.60;86.19;98575.63;2593687;28;20049;-84
2023/05/13 02:16:24;;;;;;;5.93;4.05;;;;;;;12.59;86.85;98579.16;2595179;28;20042;-83
2023/05/13 02:17:39;;;;;;;4.97;3.75;;;;;;;12.44;87.80;98577.94;2594320;28;20056;-83
2023/05/13 02:18:55;;;;;;;4.80;4.03;;;;;;;12.39;89.39;98578.09;2594804;28;20100;-83
2023/05/13 02:20:11;;;;;;;4.90;4.00;;;;;;;12.27;91.77;98578.47;2593579;28;20045;-83
2023/05/13 02:21:27;;;;;;;6.05;4.20;;;;;;;12.46;90.60;98577.88;2592953;28;20402;-84
2023/05/13 02:22:42;;;;;;;6.65;4.60;;;;;;;12.64;88.58;98574.63;2594695;28;20056;-83
2023/05/13 02:23:58;;;;;;;6.57;4.35;;;;;;;12.71;86.85;98578.75;2596134;28;20069;-83
2023/05/13 02:25:13;;;;;;;5.75;4.05;;;;;;;12.49;89.66;98578.63;2593285;28;20045;-85
2023/05/13 02:26:29;;;;;;;5.82;4.40;;;;;;;12.52;89.27;98575.06;2592385;28;20647;-84
2023/05/13 02:27:45;;;;;;;6.00;4.10;;;;;;;12.42;90.73;98572.72;2592621;28;20045;-84
2023/05/13 02:29:00;;;;;;;5.35;4.40;;;;;;;12.44;90.74;98577.94;2594781;28;20058;-84
2023/05/13 02:30:16;;;;;;;10.52;4.75;;;;;;;12.60;89.74;98572.16;2589373;28;20077;-83
2023/05/13 02:31:32;;;;;;;5.60;4.53;;;;;;;12.64;89.17;98576.38;2592279;28;20409;-83
2023/05/13 02:32:47;;;;;;;6.43;4.60;;;;;;;12.56;90.13;98569.63;2593073;28;20093;-83
2023/05/13 02:34:03;;;;;;;6.47;4.60;;;;;;;12.54;90.48;98571.44;2592734;28;20493;-83
2023/05/13 02:35:19;;;;;;;5.57;4.15;;;;;;;12.22;93.69;98573.38;2595179;28;20052;-83
2023/05/13 02:36:34;;;;;;;6.95;4.57;;;;;;;12.40;92.52;98571.03;2594493;28;20046;-84
2023/05/13 02:37:50;;;;;;;5.50;4.15;;;;;;;12.13;94.81;98568.41;2595829;28;20162;-83
2023/05/13 02:39:05;;;;;;;7.18;4.25;;;;;;;12.29;95.33;98580.16;2594495;28;20057;-83
2023/05/13 02:40:21;;;;;;;6.00;4.45;;;;;;;12.51;92.60;98568.94;2594698;28;20049;-83
2023/05/13 02:41:37;;;;;;;5.50;4.50;;;;;;;12.61;91.97;98573.88;2594129;28;20461;-83
2023/05/13 02:42:52;;;;;;;7.00;4.80;;;;;;;12.67;90.70;98573.66;2593260;28;20050;-83
2023/05/13 02:44:08;;;;;;;7.13;5.20;;;;;;;12.59;92.37;98573.06;2594926;28;20054;-83
2023/05/13 02:45:24;;;;;;;7.53;4.50;;;;;;;12.71;90.21;98570.88;2594924;28;20057;-83
2023/05/13 02:46:39;;;;;;;8.32;5.28;;;;;;;12.60;91.44;98573.00;2593357;28;20057;-83
2023/05/13 02:47:56;;;;;;;6.95;4.80;;;;;;;12.49;92.56;98567.25;2595570;28;20099;-82
2023/05/13 02:49:12;;;;;;;6.18;4.40;;;;;;;12.61;91.61;98574.72;2589506;28;20054;-83
2023/05/13 02:50:28;;;;;;;7.18;4.70;;;;;;;12.61;91.88;98574.72;2594298;28;20171;-83
2023/05/13 02:51:43;;;;;;;6.63;4.63;;;;;;;12.45;92.91;98569.16;2593056;28;20041;-84
2023/05/13 02:52:59;;;;;;;6.20;4.60;;;;;;;12.44;92.77;98570.06;2594263;28;20052;-84
2023/05/13 02:54:15;;;;;;;8.45;5.22;;;;;;;12.47;93.18;98572.56;2594803;28;20038;-83
2023/05/13 02:55:30;;;;;;;5.97;4.32;;;;;;;12.20;97.33;98566.44;2594092;28;20513;-83
2023/05/13 02:56:46;;;;;;;6.55;5.00;;;;;;;12.18;97.12;98568.28;2593229;28;20045;-83
2023/05/13 02:58:02;;;;;;;7.00;4.95;;;;;;;12.04;99.53;98572.19;2593590;28;20065;-84
2023/05/13 02:59:17;;;;;;;6.15;4.53;;;;;;;12.04;99.58;98563.50;2594514;28;20478;-83
2023/05/13 03:00:33;;;;;;;8.35;4.85;;;;;;;12.04;99.53;98569.56;2592828;28;20054;-83
2023/05/13 03:01:48;;;;;;;7.22;4.88;;;;;;;11.97;100.00;98571.50;2594686;28;20057;-83
2023/05/13 03:03:04;;;;;;;7.60;4.80;;;;;;;11.98;100.00;98577.63;2592518;28;20846;-85
2023/05/13 03:04:20;;;;;;;7.03;5.10;;;;;;;12.02;100.00;98568.78;2593664;28;20054;-84
2023/05/13 03:05:35;;;;;;;8.77;4.95;;;;;;;12.20;98.89;98566.44;2593718;28;20052;-84
2023/05/13 03:06:51;;;;;;;7.55;5.32;;;;;;;12.23;99.28;98566.38;2595838;28;20076;-84
2023/05/13 03:08:07;;;;;;;10.63;5.10;;;;;;;12.41;96.87;98563.13;2594914;28;20080;-84
2023/05/13 03:09:23;;;;;;;8.32;4.93;;;;;;;12.21;98.41;98560.28;2589205;28;20329;-83
2023/05/13 03:10:38;;;;;;;6.22;4.90;;;;;;;12.15;100.00;98567.47;2593417;28;20119;-83
2023/05/13 03:11:54;;;;;;;6.82;4.93;;;;;;;12.18;100.00;98573.53;2593587;28;20053;-84
2023/05/13 03:13:10;;;;;;;7.70;4.97;;;;;;;12.22;99.81;98568.13;2593607;28;20433;-84
2023/05/13 03:14:25;;;;;;;7.70;5.05;;;;;;;12.24;99.92;98575.97;2594759;28;20049;-83
2023/05/13 03:15:41;;;;;;;7.07;4.97;;;;;;;12.41;97.87;98568.38;2594406;28;20056;-84
2023/05/13 03:16:56;;;;;;;6.20;4.60;;;;;;;12.47;96.39;98577.81;2593794;28;20053;-83
2023/05/13 03:18:12;;;;;;;8.20;5.05;;;;;;;12.40;96.93;98576.31;2595906;28;20050;-83
2023/05/13 03:19:28;;;;;;;6.53;5.00;;;;;;;12.42;97.46;98571.84;2594043;28;20054;-83
2023/05/13 03:20:43;;;;;;;6.05;4.85;;;;;;;12.48;96.32;98578.66;2592194;28;20521;-83
2023/05/13 03:21:59;;;;;;;6.72;4.55;;;;;;;12.52;96.60;98570.63;2592512;28;20041;-83
2023/05/13 03:23:15;;;;;;;6.47;4.80;;;;;;;12.50;97.26;98576.84;2594253;28;20057;-83
2023/05/13 03:24:31;;;;;;;8.13;5.13;;;;;;;12.46;98.98;98578.75;2592956;28;20101;-83
2023/05/13 03:25:46;;;;;;;8.75;4.93;;;;;;;12.33;98.42;98583.53;2594412;28;20503;-83
2023/05/13 03:27:02;;;;;;;7.10;5.22;;;;;;;12.06;100.00;98575.63;2589069;28;20108;-83
2023/05/13 03:28:18;;;;;;;7.78;5.05;;;;;;;12.32;99.34;98580.97;2594336;28;20061;-83
2023/05/13 03:29:33;;;;;;;8.75;5.45;;;;;;;12.35;98.17;98572.97;2595721;28;20108;-84
2023/05/13 03:30:50;;;;;;;6.53;4.63;;;;;;;12.34;100.00;98571.25;2589050;28;20053;-83
2023/05/13 03:32:06;;;;;;;5.60;4.60;;;;;;;12.37;98.54;98573.78;2592982;28;20064;-84
2023/05/13 03:33:21;;;;;;;9.20;5.00;;;;;;;12.29;99.55;98574.03;2595572;28;20051;-84
2023/05/13 03:34:37;;;;;;;7.90;5.00;;;;;;;12.31;99.60;98574.00;2592863;28;20502;-84
2023/05/13 03:35:53;;;;;;;5.90;4.47;;;;;;;12.39;98.34;98582.47;2593601;28;20049;-83
2023/05/13 03:37:08;;;;;;;7.15;5.10;;;;;;;12.33;100.00;98575.66;2592430;28;20048;-83
2023/05/13 03:38:24;;;;;;;7.15;4.90;;;;;;;12.33;99.33;98582.69;2592951;28;20084;-83
2023/05/13 03:39:40;;;;;;;6.50;5.28;;;;;;;12.25;100.00;98583.78;2595697;28;20045;-83
2023/05/13 03:40:55;;;;;;;7.35;5.15;;;;;;;12.39;100.00;98579.84;2595550;28;20049;-83
2023/05/13 03:42:11;;;;;;;5.95;4.95;;;;;;;12.33;100.00;98580.06;2592620;28;20053;-83
2023/05/13 03:43:26;;;;;;;6.18;5.05;;;;;;;12.40;100.00;98576.31;2592836;28;20053;-83
2023/05/13 03:44:42;;;;;;;6.35;4.80;;;;;;;12.17;100.00;98579.69;2593659;28;20046;-84
2023/05/13 03:45:58;;;;;;;6.70;4.95;;;;;;;12.22;100.00;98578.63;2592588;28;20064;-83
2023/05/13 03:47:13;;;;;;;7.07;4.95;;;;;;;12.33;100.00;98580.91;2593304;28;20400;-83
2023/05/13 03:48:29;;;;;;;6.28;5.05;;;;;;;12.25;100.00;98589.03;2595144;28;20409;-82
2023/05/13 03:49:46;;;;;;;7.97;5.20;;;;;;;12.10;100.00;98585.16;2594324;28;20579;-83
2023/05/13 03:51:02;;;;;;;6.63;4.43;;;;;;;12.22;100.00;98586.50;2594280;28;20052;-84
2023/05/13 03:52:18;;;;;;;5.78;4.43;;;;;;;12.27;100.00;98583.72;2593763;28;20084;-82
2023/05/13 03:53:33;;;;;;;6.38;4.40;;;;;;;12.35;100.00;98589.56;2594385;28;20520;-83
2023/05/13 03:54:49;;;;;;;8.25;4.95;;;;;;;12.32;100.00;98579.19;2592937;28;20107;-83
2023/05/13 03:56:04;;;;;;;6.97;5.20;;;;;;;12.35;100.00;98586.09;2591204;28;20053;-83
2023/05/13 03:57:20;;;;;;;5.80;4.75;;;;;;;12.40;100.00;98586.81;2591859;28;20168;-83
2023/05/13 03:58:36;;;;;;;7.50;5.10;;;;;;;12.44;100.00;98591.06;2592335;28;20057;-83
2023/05/13 03:59:51;;;;;;;5.93;4.82;;;;;;;12.46;100.00;98588.38;2592520;28;20050;-83
2023/05/13 04:01:07;;;;;;;7.32;5.00;;;;;;;12.39;100.00;98585.97;2593137;28;20133;-83
2023/05/13 04:02:22;;;;;;;8.48;4.72;;;;;;;12.36;100.00;98587.81;2594078;28;20046;-83
2023/05/13 04:03:38;;;;;;;6.78;4.60;;;;;;;12.35;100.00;98592.19;2594154;28;20081;-83
2023/05/13 04:04:54;;;;;;;9.00;5.40;;;;;;;12.45;100.00;98592.78;2588665;28;20046;-83
2023/05/13 04:06:09;;;;;;;6.28;4.88;;;;;;;12.48;100.00;98595.28;2592459;28;20057;-83
2023/05/13 04:07:25;;;;;;;6.85;4.95;;;;;;;12.39;100.00;98590.34;2594371;28;20056;-83
2023/05/13 04:08:41;;;;;;;8.13;4.88;;;;;;;12.39;100.00;98591.22;2588641;28;20092;-83
2023/05/13 04:09:56;;;;;;;6.30;4.63;;;;;;;12.46;100.00;98599.75;2593776;28;20794;-83
2023/05/13 04:11:12;;;;;;;6.65;4.90;;;;;;;12.52;100.00;98594.28;2592214;28;20525;-83
2023/05/13 04:12:29;;;;;;;6.10;4.88;;;;;;;12.47;100.00;98593.59;2594373;28;20057;-83
2023/05/13 04:13:45;;;;;;;6.68;4.78;;;;;;;12.47;100.00;98593.59;2594650;28;20725;-83
2023/05/13 04:15:00;;;;;;;7.40;5.35;;;;;;;12.57;99.13;98596.75;2592398;28;20088;-83
2023/05/13 04:16:16;;;;;;;7.82;4.72;;;;;;;12.42;100.00;98592.84;2592463;28;20504;-83
2023/05/13 04:17:31;;;;;;;5.97;4.63;;;;;;;12.48;100.00;98595.28;2593737;28;20045;-83
2023/05/13 04:18:47;;;;;;;6.60;4.53;;;;;;;12.56;99.92;98592.41;2592904;28;20046;-83
2023/05/13 04:20:03;;;;;;;6.80;5.00;;;;;;;12.47;100.00;98598.84;2593353;28;20060;-83
2023/05/13 04:21:18;;;;;;;7.95;5.53;;;;;;;12.61;99.80;98594.88;2594639;28;20402;-83
2023/05/13 04:22:34;;;;;;;7.03;5.18;;;;;;;12.64;98.95;98605.28;2592548;28;20058;-83
2023/05/13 04:23:50;;;;;;;7.68;4.93;;;;;;;12.51;99.18;98602.22;2593687;28;20046;-84
2023/05/13 04:25:06;;;;;;;7.13;5.03;;;;;;;12.61;98.48;98602.78;2594414;28;20079;-84
2023/05/13 04:26:21;;;;;;;7.28;4.97;;;;;;;12.44;99.33;98609.44;2592185;28;20045;-83
2023/05/13 04:27:37;;;;;;;6.80;5.10;;;;;;;12.48;100.00;98611.06;2601474;28;20212;-83
2023/05/13 04:28:52;;;;;;;6.70;5.00;;;;;;;12.49;100.00;98609.25;2598771;28;20128;-83
2023/05/13 04:30:09;;;;;;;6.57;5.07;;;;;;;12.47;99.47;98613.72;2592914;28;20702;-84
2023/05/13 04:31:24;;;;;;;7.85;5.53;;;;;;;12.55;99.81;98609.91;2594374;28;20467;-82
2023/05/13 04:32:40;;;;;;;6.57;4.68;;;;;;;12.59;99.07;98607.22;2588380;28;20054;-83
2023/05/13 04:33:55;;;;;;;7.78;5.10;;;;;;;12.61;100.00;98611.50;2591467;28;20046;-83
2023/05/13 04:35:11;;;;;;;9.00;5.60;;;;;;;12.56;100.00;98611.63;2592494;28;20474;-83
2023/05/13 04:36:27;;;;;;;6.32;4.68;;;;;;;12.56;100.00;98608.16;2590154;28;20057;-84
2023/05/13 04:37:43;;;;;;;7.60;5.20;;;;;;;12.68;99.43;98612.13;2592386;28;20053;-83
2023/05/13 04:38:59;;;;;;;7.00;5.20;;;;;;;12.78;97.41;98612.69;2593872;28;20064;-83
2023/05/13 04:40:15;;;;;;;7.28;4.90;;;;;;;12.67;98.08;98610.44;2593995;28;20441;-83
2023/05/13 04:41:30;;;;;;;8.30;5.05;;;;;;;12.47;100.00;98617.22;2588369;28;20052;-82
2023/05/13 04:42:53;;;;;;;6.60;5.18;;;;;;;12.51;100.00;98610.94;2601890;28;20079;-83
2023/05/13 04:44:09;;;;;;;6.75;4.97;;;;;;;12.55;99.84;98615.16;2598228;28;20085;-84
2023/05/13 04:45:24;;;;;;;6.68;4.55;;;;;;;12.40;100.00;98613.06;2591765;28;20057;-83
2023/05/13 04:46:42;;;;;;;5.90;4.57;;;;;;;12.46;100.00;98614.63;2594188;28;20053;-83
2023/05/13 04:47:57;;;;;;;6.65;4.63;;;;;;;12.83;98.67;98624.75;2592715;28;20076;-82
2023/05/13 04:49:13;;;;;;;6.88;4.90;;;;;;;12.90;96.04;98621.94;2592495;28;20124;-82
2023/05/13 04:50:28;;;;;;;5.85;4.22;;;;;;;12.92;95.41;98620.09;2593323;28;20041;-82
2023/05/13 04:51:44;;;;;;;6.35;4.50;;;;;;;12.45;100.00;98626.03;2594749;28;20069;-84
2023/05/13 04:53:00;;;;;;;7.03;4.70;;;;;;;12.60;97.69;98622.91;2591764;28;20486;-85
2023/05/13 04:54:15;;;;;;;6.28;4.68;;;;;;;12.90;96.26;98627.19;2593836;28;20045;-83
2023/05/13 04:55:31;;;;;;;5.50;4.60;;;;;;;13.05;95.30;98626.66;2591891;28;20485;-83
2023/05/13 04:56:47;;;;;;;5.97;4.30;;;;;;;13.00;93.82;98629.44;2592643;28;20042;-84
2023/05/13 04:58:02;;;;;;;5.78;4.10;;;;;;;13.03;95.31;98623.22;2593084;28;20053;-84
2023/05/13 04:59:18;;;;;;;4.95;4.03;;;;;;;13.11;93.01;98636.09;2592201;28;20053;-82
2023/05/13 05:00:33;;;;;;;5.80;4.40;;;;;;;13.13;93.99;98637.75;2594996;28;20089;-82
2023/05/13 05:01:49;;;;;;;6.53;3.92;;;;;;;13.26;93.18;98639.91;2592037;28;20064;-83
2023/05/13 05:03:05;;;;;;;6.53;3.97;;;;;;;13.14;94.00;98642.09;2594139;28;20483;-84
2023/05/13 05:04:20;;;;;;;5.82;3.95;;;;;;;13.02;95.60;98631.16;2592439;28;20077;-83
2023/05/13 05:05:36;;;;;;;6.78;4.57;;;;;;;13.04;95.31;98638.06;2592174;28;20092;-83
2023/05/13 05:06:52;;;;;;;6.13;4.30;;;;;;;13.17;91.87;98642.91;2593531;28;20054;-84
2023/05/13 05:08:07;;;;;;;5.00;3.90;;;;;;;13.17;92.74;98638.47;2593620;28;20095;-83
2023/05/13 05:09:23;;;;;;;5.72;4.30;;;;;;;13.24;90.88;98637.38;2594857;28;20077;-84
2023/05/13 05:10:38;;;;;;;5.63;3.97;;;;;;;13.17;92.08;98635.00;2594814;28;20065;-84
2023/05/13 05:11:54;;;;;;;4.75;3.70;;;;;;;13.34;91.29;98632.63;2593175;28;20607;-83
2023/05/13 05:13:10;;;;;;;6.28;3.97;;;;;;;13.55;89.41;98635.44;2592168;28;20049;-83
2023/05/13 05:14:25;;;;;;;4.68;4.05;;;;;;;13.73;89.24;98633.03;2593222;28;20050;-83
2023/05/13 05:15:41;;;;;;;5.00;3.40;;;;;;;13.67;87.93;98636.75;2591216;28;20053;-83
2023/05/13 05:16:56;;;;;;;5.97;3.47;;;;;;;13.60;89.99;98637.88;2592478;28;20045;-83
2023/05/13 05:18:12;;;;;;;5.40;3.47;;;;;;;13.72;87.43;98639.19;2596543;28;20460;-83
2023/05/13 05:19:28;;;;;;;4.40;3.53;;;;;;;13.64;86.33;98639.50;2596279;28;20052;-84
2023/05/13 05:20:43;;;;;;;4.88;3.50;;;;;;;13.65;85.11;98638.56;2593954;28;20045;-84
2023/05/13 05:21:59;;;;;;;4.40;3.95;;;;;;;13.47;86.15;98635.69;2593298;28;20081;-83
2023/05/13 05:23:15;;;;;;;6.10;3.80;;;;;;;13.68;86.96;98639.28;2593715;28;20413;-83
2023/05/13 05:24:30;;;;;;;5.32;3.50;;;;;;;13.89;83.40;98634.16;2592264;28;20045;-82
2023/05/13 05:25:46;;;;;;;4.65;3.92;;;;;;;13.89;84.11;98630.66;2593663;28;20060;-82
2023/05/13 05:27:01;;;;;;;6.00;3.55;;;;;;;13.69;85.08;98629.66;2593571;28;20059;-83
2023/05/13 05:28:17;;;;;;;5.57;3.60;;;;;;;14.04;83.48;98635.34;2591716;28;20057;-83
2023/05/13 05:29:33;;;;;;;6.05;3.47;;;;;;;13.90;83.95;98638.50;2592723;28;20054;-82
2023/05/13 05:30:48;;;;;;;4.97;3.28;;;;;;;14.04;84.58;98632.72;2594296;28;20056;-82
2023/05/13 05:32:04;;;;;;;4.22;3.03;;;;;;;14.26;81.31;98640.63;2595174;28;20052;-82
2023/05/13 05:33:20;;;;;;;5.70;3.20;;;;;;;13.83;84.05;98640.50;2594602;28;20057;-84
2023/05/13 05:34:36;;;;;;;6.28;3.58;;;;;;;13.79;85.49;98643.31;2595136;28;20069;-84
2023/05/13 05:35:51;;;;;;;4.32;3.17;;;;;;;14.17;81.62;98640.09;2596102;28;20061;-84
2023/05/13 05:37:07;;;;;;;6.75;3.38;;;;;;;13.82;82.49;98641.41;2593756;28;20056;-82
2023/05/13 05:38:25;;;;;;;5.68;3.10;;;;;;;14.33;80.72;98645.63;2595132;28;20046;-82
2023/05/13 05:39:40;;;;;;;4.35;2.97;;;;;;;14.29;80.88;98647.50;2595768;28;20061;-84
2023/05/13 05:40:56;;;;;;;3.70;2.88;;;;;;;14.26;80.57;98645.00;2594820;28;20856;-85
2023/05/13 05:42:11;;;;;;;3.70;2.83;;;;;;;14.57;78.25;98645.56;2594800;28;20049;-84
2023/05/13 05:43:27;;;;;;;4.05;3.17;;;;;;;14.61;79.00;98647.13;2596129;28;20049;-83
2023/05/13 05:44:43;;;;;;;3.88;3.10;;;;;;;14.64;77.86;98653.13;2594503;28;20140;-83
2023/05/13 05:45:58;;;;;;;4.30;2.92;;;;;;;14.25;78.55;98649.44;2596738;28;20519;-83
2023/05/13 05:47:14;;;;;;;4.32;3.10;;;;;;;14.65;76.18;98653.97;2593599;28;20628;-84
2023/05/13 05:48:29;;;;;;;3.95;3.10;;;;;;;14.87;75.74;98655.75;2595632;28;20041;-83
2023/05/13 05:49:45;;;;;;;4.35;3.10;;;;;;;14.97;74.17;98654.47;2593952;28;20342;-84
2023/05/13 05:51:01;;;;;;;3.65;2.38;;;;;;;14.25;78.27;98652.06;2594879;28;20060;-83
2023/05/13 05:52:16;;;;;;;3.30;3.00;;;;;;;14.48;76.78;98647.63;2589983;28;20054;-84
2023/05/13 05:53:32;;;;;;;5.20;3.20;;;;;;;14.40;79.44;98652.38;2596055;28;20193;-83
2023/05/13 05:54:47;;;;;;;5.63;3.28;;;;;;;14.46;76.16;98659.13;2595520;28;20045;-84
2023/05/13 05:56:03;;;;;;;3.78;2.83;;;;;;;14.58;76.30;98657.81;2594931;28;20474;-84
2023/05/13 05:57:19;;;;;;;4.53;3.35;;;;;;;14.66;75.72;98656.56;2594972;28;20050;-83
2023/05/13 05:58:35;;;;;;;4.10;3.10;;;;;;;14.91;72.60;98652.06;2593362;28;20085;-84
2023/05/13 05:59:50;;;;;;;3.20;2.80;;;;;;;14.89;73.20;98660.06;2593308;28;20057;-84